Young Endeavour — VMGW — position and weather

sailwx.info

Track history (hours):
 
Tides and Currents Weather Stations Pressure Air Temp Water Temp Dewpoint Dewpoint Depression Visibility Wind Speed Wind Dir Waves Ship Positions

Young Endeavour (Australia)

Ship's website: http://www.youngendeavour.gov.au/

Last reported at 2017-Jul-18 13:04 UTC. Time now 2017-Jul-28 06:38 UTC.
Position S 33°49' E 151°17'.
Warning: this ship's position is 9 days out of date.

Length 44 m; beam 7.8 m; draft 4 m.

Type: Sailing vessel. MMSI: 503071000.

Date/timePositionNaut miles runAvg speedWind from/ knotsBaromVisibWave heightAir tempDewpointWater temp
2017-Jul-18 13:04S 33°49' E 151°17'1 6.3
2017-Jul-18 12:58S 33°50' E 151°17'4 6.2
2017-Jul-18 12:21S 33°51' E 151°22'1 4.1
2017-Jul-18 12:01S 33°51' E 151°23'1 2.4
2017-Jul-18 11:25S 33°49' E 151°23'2 4.3
2017-Jul-18 11:00S 33°48' E 151°23'1 1.3
2017-Jul-18 10:30S 33°47' E 151°23'3 5.2
2017-Jul-18 09:59S 33°44' E 151°23'3 4.3
2017-Jul-18 09:24S 33°42' E 151°23'2 3.9
2017-Jul-18 09:00S 33°40' E 151°23'2 3.7
2017-Jul-18 08:30S 33°39' E 151°23'3 4.4
2017-Jul-18 07:53S 33°36' E 151°22'0 1.1
2017-Jul-18 07:30S 33°36' E 151°22'0 0.4
2017-Jul-18 07:01S 33°35' E 151°22'0 0.3
2017-Jul-18 06:30S 33°35' E 151°21'0 0.8
2017-Jul-18 06:00S 33°35' E 151°21'2 4.3
2017-Jul-18 05:30S 33°34' E 151°19'1 0.1
2017-Jul-17 04:36S 33°34' E 151°17'0 4.3
2017-Jul-17 04:30S 33°34' E 151°18'2 3.6
2017-Jul-17 04:00S 33°34' E 151°20'1 1.1
2017-Jul-17 03:30S 33°34' E 151°21'0 0.4
2017-Jul-17 03:00S 33°34' E 151°21'0 0.2
2017-Jul-17 02:30S 33°34' E 151°21'1 2.7
2017-Jul-17 01:59S 33°34' E 151°22'3 3.8
2017-Jul-17 01:07S 33°32' E 151°26'39 5.1
2017-Jul-16 17:22S 33°04' E 151°59'2 4.5
2017-Jul-16 16:57S 33°03' E 152°01'2 4.3
2017-Jul-16 16:30S 33°02' E 152°03'2 4.2
2017-Jul-16 16:01S 33°00' E 152°04'2 4.1
2017-Jul-16 15:31S 32°59' E 152°06'2 4.0
2017-Jul-16 15:01S 32°58' E 152°08'2 4.2
2017-Jul-16 14:31S 32°56' E 152°10'2 3.7
2017-Jul-16 14:00S 32°55' E 152°11'2 4.0
2017-Jul-16 13:31S 32°53' E 152°13'2 3.9
2017-Jul-16 13:00S 32°52' E 152°14'2 4.3
2017-Jul-16 12:31S 32°51' E 152°17'3 5.1
2017-Jul-16 12:00S 32°49' E 152°19'2 4.9
2017-Jul-16 11:31S 32°48' E 152°21'2 4.6
2017-Jul-16 11:00S 32°46' E 152°23'2 4.9
2017-Jul-16 10:30S 32°44' E 152°24'3 5.3
2017-Jul-16 10:01S 32°42' E 152°26'3 5.9
2017-Jul-16 09:30S 32°40' E 152°29'3 5.6
2017-Jul-16 09:00S 32°38' E 152°31'3 5.6
2017-Jul-16 08:29S 32°35' E 152°33'3 0.3
2017-Jul-15 18:57S 32°36' E 152°37'1 2.2
2017-Jul-15 18:30S 32°37' E 152°38'1 2.5
2017-Jul-15 18:00S 32°38' E 152°39'1 3.0
2017-Jul-15 17:30S 32°39' E 152°40'2 2.2
2017-Jul-15 16:31S 32°42' E 152°40'0 0.7
2017-Jul-15 16:05S 32°42' E 152°40'0 0.5
2017-Jul-15 16:00S 32°42' E 152°40'1 0.9
2017-Jul-15 15:06S 32°43' E 152°40'0 0.7
2017-Jul-15 14:49S 32°43' E 152°40'11 2.3
2017-Jul-15 09:54S 32°54' E 152°36'2 3.3
2017-Jul-15 09:25S 32°53' E 152°35'1 3.3
2017-Jul-15 09:00S 32°52' E 152°34'2 3.4
2017-Jul-15 08:30S 32°51' E 152°32'3 5.3
2017-Jul-15 07:59S 32°49' E 152°30'3 5.7
2017-Jul-15 07:30S 32°47' E 152°27'3 5.8
2017-Jul-15 07:00S 32°45' E 152°24'3 6.0
2017-Jul-15 06:30S 32°44' E 152°21'3 5.9
2017-Jul-15 06:00S 32°43' E 152°18'2 4.6
2017-Jul-15 05:31S 32°41' E 152°16'0 1.0
2017-Jul-15 05:01S 32°41' E 152°16'1 1.3
2017-Jul-15 04:31S 32°41' E 152°16'1 3.0
2017-Jul-15 04:01S 32°41' E 152°14'2 3.6
2017-Jul-15 03:31S 32°42' E 152°13'3 6.3
2017-Jul-15 03:00S 32°43' E 152°09'0 0.2
2017-Jul-15 02:30S 32°43' E 152°09'0 0.1
2017-Jul-15 02:00S 32°43' E 152°09'0 0.1
2017-Jul-15 01:30S 32°43' E 152°09'0 0.1
2017-Jul-15 01:00S 32°43' E 152°09'0 0.0
2017-Jul-15 00:30S 32°43' E 152°09'0 0.0
2017-Jul-15 00:00S 32°43' E 152°09'0 0.0
2017-Jul-14 23:30S 32°43' E 152°09'0 0.0
2017-Jul-14 23:00S 32°43' E 152°09'0 0.0
2017-Jul-14 22:30S 32°43' E 152°09'0 0.0
2017-Jul-14 22:00S 32°43' E 152°09'0 0.1
2017-Jul-14 21:30S 32°43' E 152°09'0 0.0
2017-Jul-14 21:00S 32°43' E 152°09'0 0.0
2017-Jul-14 20:30S 32°43' E 152°09'0 0.0
2017-Jul-14 20:00S 32°43' E 152°09'0 0.0
2017-Jul-14 19:30S 32°43' E 152°09'0 0.0
2017-Jul-14 19:00S 32°43' E 152°09'0 0.0
2017-Jul-14 18:30S 32°43' E 152°09'0 0.0
2017-Jul-14 18:00S 32°43' E 152°09'0 0.0
2017-Jul-14 17:30S 32°43' E 152°09'0 0.0
2017-Jul-14 17:00S 32°43' E 152°09'0 0.1
2017-Jul-14 16:30S 32°43' E 152°09'0 0.0
2017-Jul-14 16:00S 32°43' E 152°09'0 0.0
2017-Jul-14 15:30S 32°43' E 152°09'0 0.0
2017-Jul-14 15:00S 32°43' E 152°09'0 0.1
2017-Jul-14 14:30S 32°43' E 152°09'0 0.0
2017-Jul-14 14:00S 32°43' E 152°09'0 0.0
2017-Jul-14 13:30S 32°43' E 152°09'0 0.0
2017-Jul-14 13:00S 32°43' E 152°09'0 0.0
2017-Jul-14 12:30S 32°43' E 152°09'0 0.0
2017-Jul-14 12:00S 32°43' E 152°09'0 0.0
2017-Jul-14 11:30S 32°43' E 152°09'0 0.0
2017-Jul-14 11:00S 32°43' E 152°09'0 0.0
2017-Jul-14 10:30S 32°43' E 152°09'0 0.0
2017-Jul-14 10:00S 32°43' E 152°09'0 0.0
2017-Jul-14 09:30S 32°43' E 152°09'0 0.0
2017-Jul-14 09:00S 32°43' E 152°09'0 0.0
2017-Jul-14 08:30S 32°43' E 152°09'0 0.1
2017-Jul-14 08:00S 32°43' E 152°09'0 0.0
2017-Jul-14 07:30S 32°43' E 152°09'0 0.0
2017-Jul-14 07:00S 32°43' E 152°09'0 0.0
2017-Jul-14 06:30S 32°43' E 152°09'0 0.0
2017-Jul-14 06:00S 32°43' E 152°09'0 0.0
2017-Jul-14 05:30S 32°43' E 152°09'0 0.0
2017-Jul-14 05:00S 32°43' E 152°09'0 0.0
2017-Jul-14 04:30S 32°43' E 152°09'0 0.0
2017-Jul-14 04:00S 32°43' E 152°09'0 0.0
2017-Jul-14 03:31S 32°43' E 152°09'0 0.0
2017-Jul-14 03:00S 32°43' E 152°09'0 0.0
2017-Jul-14 02:30S 32°43' E 152°09'0 0.1
2017-Jul-14 02:01S 32°43' E 152°09'0 0.0
2017-Jul-14 01:30S 32°43' E 152°09'0 0.0
2017-Jul-14 01:00S 32°43' E 152°09'3 6.1
2017-Jul-14 00:30S 32°43' E 152°12'3 5.4
2017-Jul-14 00:00S 32°44' E 152°15'2 3.9
2017-Jul-13 23:30S 32°45' E 152°17'3 5.7
2017-Jul-13 23:00S 32°46' E 152°20'3 6.2
2017-Jul-13 22:30S 32°47' E 152°23'1 2.7
2017-Jul-13 22:00S 32°47' E 152°25'1 1.6
2017-Jul-13 21:30S 32°47' E 152°26'1 1.7
2017-Jul-13 21:00S 32°46' E 152°27'1 2.2
2017-Jul-13 20:30S 32°46' E 152°28'1 1.2
2017-Jul-13 20:00S 32°46' E 152°27'1 1.1
2017-Jul-13 19:30S 32°45' E 152°27'1 1.3
2017-Jul-13 19:00S 32°45' E 152°26'1 1.5
2017-Jul-13 18:31S 32°45' E 152°25'1 1.5
2017-Jul-13 18:01S 32°45' E 152°24'1 1.5
2017-Jul-13 17:30S 32°44' E 152°23'2 3.9
2017-Jul-13 17:00S 32°43' E 152°25'2 3.8
2017-Jul-13 16:30S 32°42' E 152°27'2 3.6
2017-Jul-13 16:00S 32°41' E 152°29'2 3.7
2017-Jul-13 15:31S 32°40' E 152°30'2 4.6
2017-Jul-13 14:59S 32°38' E 152°33'9 2.9
2017-Jul-13 11:54S 32°30' E 152°36'3 5.6
2017-Jul-13 11:24S 32°31' E 152°33'2 6.0
2017-Jul-13 11:01S 32°32' E 152°30'3 6.7
2017-Jul-13 10:31S 32°34' E 152°27'3 6.3
2017-Jul-13 10:00S 32°34' E 152°23'3 6.5
2017-Jul-13 09:31S 32°35' E 152°19'1 2.6
2017-Jul-13 09:01S 32°37' E 152°19'0 0.0
2017-Jul-13 08:27S 32°37' E 152°19'0 0.0
2017-Jul-13 07:42S 32°37' E 152°19'0 0.0
2017-Jul-13 07:30S 32°37' E 152°19'0 0.0
2017-Jul-13 07:00S 32°37' E 152°19'0 0.0
2017-Jul-13 06:27S 32°37' E 152°19'0 0.0
2017-Jul-13 06:00S 32°37' E 152°19'0 0.0
2017-Jul-13 05:30S 32°37' E 152°19'0 0.0
2017-Jul-13 05:00S 32°37' E 152°19'0 0.0
2017-Jul-13 04:30S 32°37' E 152°19'0 0.0
2017-Jul-13 04:00S 32°37' E 152°19'0 0.0
2017-Jul-13 03:30S 32°37' E 152°19'0 0.0
2017-Jul-13 03:00S 32°37' E 152°19'0 0.0
2017-Jul-13 02:30S 32°37' E 152°19'0 0.0
2017-Jul-13 02:00S 32°37' E 152°19'0 0.0
2017-Jul-13 01:27S 32°37' E 152°19'0 0.1
2017-Jul-13 01:00S 32°37' E 152°19'0 0.0
2017-Jul-13 00:30S 32°37' E 152°19'0 0.0
2017-Jul-13 00:00S 32°37' E 152°19'0 0.0
2017-Jul-12 23:30S 32°37' E 152°19'0 0.1
2017-Jul-12 23:00S 32°37' E 152°19'0 0.6
2017-Jul-12 22:30S 32°36' E 152°18'1 2.7
2017-Jul-12 22:00S 32°36' E 152°20'2 4.2
2017-Jul-12 21:30S 32°37' E 152°22'2 3.5
2017-Jul-12 21:00S 32°39' E 152°22'3 5.3
2017-Jul-12 20:30S 32°42' E 152°21'3 5.3
2017-Jul-12 20:00S 32°44' E 152°19'3 5.4
2017-Jul-12 19:30S 32°46' E 152°17'3 5.4
2017-Jul-12 19:00S 32°49' E 152°16'3 5.4
2017-Jul-12 18:30S 32°51' E 152°14'3 5.4
2017-Jul-12 18:00S 32°52' E 152°12'3 5.5
2017-Jul-12 17:30S 32°54' E 152°09'3 5.2
2017-Jul-12 17:00S 32°56' E 152°07'3 5.2
2017-Jul-12 16:30S 32°57' E 152°04'3 5.0
2017-Jul-12 15:59S 32°59' E 152°02'47 5.6
2017-Jul-12 07:44S 33°37' E 151°30'1 5.9
2017-Jul-12 07:29S 33°38' E 151°29'2 3.1
2017-Jul-12 06:47S 33°40' E 151°27'2 8.1
2017-Jul-12 06:28S 33°42' E 151°25'4 7.9
2017-Jul-12 06:00S 33°45' E 151°23'4 7.8
2017-Jul-12 05:30S 33°48' E 151°20'3 5.4
2017-Jul-12 05:00S 33°50' E 151°18'1 2.7
2017-Jul-12 04:30S 33°51' E 151°16'0 0.1
2017-Jul-12 03:22S 33°51' E 151°17'0 0.0
2017-Jul-11 20:04S 33°51' E 151°17'0 0.0
2017-Jul-11 12:40S 33°51' E 151°17'0 0.1
2017-Jul-11 12:19S 33°51' E 151°17'0 0.0
2017-Jul-11 11:55S 33°51' E 151°17'  
Track history (hours):
 
Tides and Currents Weather Stations Pressure Air Temp Water Temp Dewpoint Dewpoint Depression Visibility Wind Speed Wind Dir Waves Ship Positions

Young Endeavour (Australia)

Ship's website: http://www.youngendeavour.gov.au/

Last reported at 2017-Jul-18 13:04 UTC. Time now 2017-Jul-28 06:38 UTC.
Position S 33°49' E 151°17'.
Warning: this ship's position is 9 days out of date.

Length 44 m; beam 7.8 m; draft 4 m.

Type: Sailing vessel. MMSI: 503071000.

Date/timePositionNaut miles runAvg speedWind from/ knotsBaromVisibWave heightAir tempDewpointWater temp
2017-Jul-18 13:04S 33°49' E 151°17'1 6.3
2017-Jul-18 12:58S 33°50' E 151°17'4 6.2
2017-Jul-18 12:21S 33°51' E 151°22'1 4.1
2017-Jul-18 12:01S 33°51' E 151°23'1 2.4
2017-Jul-18 11:25S 33°49' E 151°23'2 4.3
2017-Jul-18 11:00S 33°48' E 151°23'1 1.3
2017-Jul-18 10:30S 33°47' E 151°23'3 5.2
2017-Jul-18 09:59S 33°44' E 151°23'3 4.3
2017-Jul-18 09:24S 33°42' E 151°23'2 3.9
2017-Jul-18 09:00S 33°40' E 151°23'2 3.7
2017-Jul-18 08:30S 33°39' E 151°23'3 4.4
2017-Jul-18 07:53S 33°36' E 151°22'0 1.1
2017-Jul-18 07:30S 33°36' E 151°22'0 0.4
2017-Jul-18 07:01S 33°35' E 151°22'0 0.3
2017-Jul-18 06:30S 33°35' E 151°21'0 0.8
2017-Jul-18 06:00S 33°35' E 151°21'2 4.3
2017-Jul-18 05:30S 33°34' E 151°19'1 0.1
2017-Jul-17 04:36S 33°34' E 151°17'0 4.3
2017-Jul-17 04:30S 33°34' E 151°18'2 3.6
2017-Jul-17 04:00S 33°34' E 151°20'1 1.1
2017-Jul-17 03:30S 33°34' E 151°21'0 0.4
2017-Jul-17 03:00S 33°34' E 151°21'0 0.2
2017-Jul-17 02:30S 33°34' E 151°21'1 2.7
2017-Jul-17 01:59S 33°34' E 151°22'3 3.8
2017-Jul-17 01:07S 33°32' E 151°26'39 5.1
2017-Jul-16 17:22S 33°04' E 151°59'2 4.5
2017-Jul-16 16:57S 33°03' E 152°01'2 4.3
2017-Jul-16 16:30S 33°02' E 152°03'2 4.2
2017-Jul-16 16:01S 33°00' E 152°04'2 4.1
2017-Jul-16 15:31S 32°59' E 152°06'2 4.0
2017-Jul-16 15:01S 32°58' E 152°08'2 4.2
2017-Jul-16 14:31S 32°56' E 152°10'2 3.7
2017-Jul-16 14:00S 32°55' E 152°11'2 4.0
2017-Jul-16 13:31S 32°53' E 152°13'2 3.9
2017-Jul-16 13:00S 32°52' E 152°14'2 4.3
2017-Jul-16 12:31S 32°51' E 152°17'3 5.1
2017-Jul-16 12:00S 32°49' E 152°19'2 4.9
2017-Jul-16 11:31S 32°48' E 152°21'2 4.6
2017-Jul-16 11:00S 32°46' E 152°23'2 4.9
2017-Jul-16 10:30S 32°44' E 152°24'3 5.3
2017-Jul-16 10:01S 32°42' E 152°26'3 5.9
2017-Jul-16 09:30S 32°40' E 152°29'3 5.6
2017-Jul-16 09:00S 32°38' E 152°31'3 5.6
2017-Jul-16 08:29S 32°35' E 152°33'3 0.3
2017-Jul-15 18:57S 32°36' E 152°37'1 2.2
2017-Jul-15 18:30S 32°37' E 152°38'1 2.5
2017-Jul-15 18:00S 32°38' E 152°39'1 3.0
2017-Jul-15 17:30S 32°39' E 152°40'2 2.2
2017-Jul-15 16:31S 32°42' E 152°40'0 0.7
2017-Jul-15 16:05S 32°42' E 152°40'0 0.5
2017-Jul-15 16:00S 32°42' E 152°40'1 0.9
2017-Jul-15 15:06S 32°43' E 152°40'0 0.7
2017-Jul-15 14:49S 32°43' E 152°40'11 2.3
2017-Jul-15 09:54S 32°54' E 152°36'2 3.3
2017-Jul-15 09:25S 32°53' E 152°35'1 3.3
2017-Jul-15 09:00S 32°52' E 152°34'2 3.4
2017-Jul-15 08:30S 32°51' E 152°32'3 5.3
2017-Jul-15 07:59S 32°49' E 152°30'3 5.7
2017-Jul-15 07:30S 32°47' E 152°27'3 5.8
2017-Jul-15 07:00S 32°45' E 152°24'3 6.0
2017-Jul-15 06:30S 32°44' E 152°21'3 5.9
2017-Jul-15 06:00S 32°43' E 152°18'2 4.6
2017-Jul-15 05:31S 32°41' E 152°16'0 1.0
2017-Jul-15 05:01S 32°41' E 152°16'1 1.3
2017-Jul-15 04:31S 32°41' E 152°16'1 3.0
2017-Jul-15 04:01S 32°41' E 152°14'2 3.6
2017-Jul-15 03:31S 32°42' E 152°13'3 6.3
2017-Jul-15 03:00S 32°43' E 152°09'0 0.2
2017-Jul-15 02:30S 32°43' E 152°09'0 0.1
2017-Jul-15 02:00S 32°43' E 152°09'0 0.1
2017-Jul-15 01:30S 32°43' E 152°09'0 0.1
2017-Jul-15 01:00S 32°43' E 152°09'0 0.0
2017-Jul-15 00:30S 32°43' E 152°09'0 0.0
2017-Jul-15 00:00S 32°43' E 152°09'0 0.0
2017-Jul-14 23:30S 32°43' E 152°09'0 0.0
2017-Jul-14 23:00S 32°43' E 152°09'0 0.0
2017-Jul-14 22:30S 32°43' E 152°09'0 0.0
2017-Jul-14 22:00S 32°43' E 152°09'0 0.1
2017-Jul-14 21:30S 32°43' E 152°09'0 0.0
2017-Jul-14 21:00S 32°43' E 152°09'0 0.0
2017-Jul-14 20:30S 32°43' E 152°09'0 0.0
2017-Jul-14 20:00S 32°43' E 152°09'0 0.0
2017-Jul-14 19:30S 32°43' E 152°09'0 0.0
2017-Jul-14 19:00S 32°43' E 152°09'0 0.0
2017-Jul-14 18:30S 32°43' E 152°09'0 0.0
2017-Jul-14 18:00S 32°43' E 152°09'0 0.0
2017-Jul-14 17:30S 32°43' E 152°09'0 0.0
2017-Jul-14 17:00S 32°43' E 152°09'0 0.1
2017-Jul-14 16:30S 32°43' E 152°09'0 0.0
2017-Jul-14 16:00S 32°43' E 152°09'0 0.0
2017-Jul-14 15:30S 32°43' E 152°09'0 0.0
2017-Jul-14 15:00S 32°43' E 152°09'0 0.1
2017-Jul-14 14:30S 32°43' E 152°09'0 0.0
2017-Jul-14 14:00S 32°43' E 152°09'0 0.0
2017-Jul-14 13:30S 32°43' E 152°09'0 0.0
2017-Jul-14 13:00S 32°43' E 152°09'0 0.0
2017-Jul-14 12:30S 32°43' E 152°09'0 0.0
2017-Jul-14 12:00S 32°43' E 152°09'0 0.0
2017-Jul-14 11:30S 32°43' E 152°09'0 0.0
2017-Jul-14 11:00S 32°43' E 152°09'0 0.0
2017-Jul-14 10:30S 32°43' E 152°09'0 0.0
2017-Jul-14 10:00S 32°43' E 152°09'0 0.0
2017-Jul-14 09:30S 32°43' E 152°09'0 0.0
2017-Jul-14 09:00S 32°43' E 152°09'0 0.0
2017-Jul-14 08:30S 32°43' E 152°09'0 0.1
2017-Jul-14 08:00S 32°43' E 152°09'0 0.0
2017-Jul-14 07:30S 32°43' E 152°09'0 0.0
2017-Jul-14 07:00S 32°43' E 152°09'0 0.0
2017-Jul-14 06:30S 32°43' E 152°09'0 0.0
2017-Jul-14 06:00S 32°43' E 152°09'0 0.0
2017-Jul-14 05:30S 32°43' E 152°09'0 0.0
2017-Jul-14 05:00S 32°43' E 152°09'0 0.0
2017-Jul-14 04:30S 32°43' E 152°09'0 0.0
2017-Jul-14 04:00S 32°43' E 152°09'0 0.0
2017-Jul-14 03:31S 32°43' E 152°09'0 0.0
2017-Jul-14 03:00S 32°43' E 152°09'0 0.0
2017-Jul-14 02:30S 32°43' E 152°09'0 0.1
2017-Jul-14 02:01S 32°43' E 152°09'0 0.0
2017-Jul-14 01:30S 32°43' E 152°09'0 0.0
2017-Jul-14 01:00S 32°43' E 152°09'3 6.1
2017-Jul-14 00:30S 32°43' E 152°12'3 5.4
2017-Jul-14 00:00S 32°44' E 152°15'2 3.9
2017-Jul-13 23:30S 32°45' E 152°17'3 5.7
2017-Jul-13 23:00S 32°46' E 152°20'3 6.2
2017-Jul-13 22:30S 32°47' E 152°23'1 2.7
2017-Jul-13 22:00S 32°47' E 152°25'1 1.6
2017-Jul-13 21:30S 32°47' E 152°26'1 1.7
2017-Jul-13 21:00S 32°46' E 152°27'1 2.2
2017-Jul-13 20:30S 32°46' E 152°28'1 1.2
2017-Jul-13 20:00S 32°46' E 152°27'1 1.1
2017-Jul-13 19:30S 32°45' E 152°27'1 1.3
2017-Jul-13 19:00S 32°45' E 152°26'1 1.5
2017-Jul-13 18:31S 32°45' E 152°25'1 1.5
2017-Jul-13 18:01S 32°45' E 152°24'1 1.5
2017-Jul-13 17:30S 32°44' E 152°23'2 3.9
2017-Jul-13 17:00S 32°43' E 152°25'2 3.8
2017-Jul-13 16:30S 32°42' E 152°27'2 3.6
2017-Jul-13 16:00S 32°41' E 152°29'2 3.7
2017-Jul-13 15:31S 32°40' E 152°30'2 4.6
2017-Jul-13 14:59S 32°38' E 152°33'9 2.9
2017-Jul-13 11:54S 32°30' E 152°36'3 5.6
2017-Jul-13 11:24S 32°31' E 152°33'2 6.0
2017-Jul-13 11:01S 32°32' E 152°30'3 6.7
2017-Jul-13 10:31S 32°34' E 152°27'3 6.3
2017-Jul-13 10:00S 32°34' E 152°23'3 6.5
2017-Jul-13 09:31S 32°35' E 152°19'1 2.6
2017-Jul-13 09:01S 32°37' E 152°19'0 0.0
2017-Jul-13 08:27S 32°37' E 152°19'0 0.0
2017-Jul-13 07:42S 32°37' E 152°19'0 0.0
2017-Jul-13 07:30S 32°37' E 152°19'0 0.0
2017-Jul-13 07:00S 32°37' E 152°19'0 0.0
2017-Jul-13 06:27S 32°37' E 152°19'0 0.0
2017-Jul-13 06:00S 32°37' E 152°19'0 0.0
2017-Jul-13 05:30S 32°37' E 152°19'0 0.0
2017-Jul-13 05:00S 32°37' E 152°19'0 0.0
2017-Jul-13 04:30S 32°37' E 152°19'0 0.0
2017-Jul-13 04:00S 32°37' E 152°19'0 0.0
2017-Jul-13 03:30S 32°37' E 152°19'0 0.0
2017-Jul-13 03:00S 32°37' E 152°19'0 0.0
2017-Jul-13 02:30S 32°37' E 152°19'0 0.0
2017-Jul-13 02:00S 32°37' E 152°19'0 0.0
2017-Jul-13 01:27S 32°37' E 152°19'0 0.1
2017-Jul-13 01:00S 32°37' E 152°19'0 0.0
2017-Jul-13 00:30S 32°37' E 152°19'0 0.0
2017-Jul-13 00:00S 32°37' E 152°19'0 0.0
2017-Jul-12 23:30S 32°37' E 152°19'0 0.1
2017-Jul-12 23:00S 32°37' E 152°19'0 0.6
2017-Jul-12 22:30S 32°36' E 152°18'1 2.7
2017-Jul-12 22:00S 32°36' E 152°20'2 4.2
2017-Jul-12 21:30S 32°37' E 152°22'2 3.5
2017-Jul-12 21:00S 32°39' E 152°22'3 5.3
2017-Jul-12 20:30S 32°42' E 152°21'3 5.3
2017-Jul-12 20:00S 32°44' E 152°19'3 5.4
2017-Jul-12 19:30S 32°46' E 152°17'3 5.4
2017-Jul-12 19:00S 32°49' E 152°16'3 5.4
2017-Jul-12 18:30S 32°51' E 152°14'3 5.4
2017-Jul-12 18:00S 32°52' E 152°12'3 5.5
2017-Jul-12 17:30S 32°54' E 152°09'3 5.2
2017-Jul-12 17:00S 32°56' E 152°07'3 5.2
2017-Jul-12 16:30S 32°57' E 152°04'3 5.0
2017-Jul-12 15:59S 32°59' E 152°02'47 5.6
2017-Jul-12 07:44S 33°37' E 151°30'1 5.9
2017-Jul-12 07:29S 33°38' E 151°29'2 3.1
2017-Jul-12 06:47S 33°40' E 151°27'2 8.1
2017-Jul-12 06:28S 33°42' E 151°25'4 7.9
2017-Jul-12 06:00S 33°45' E 151°23'4 7.8
2017-Jul-12 05:30S 33°48' E 151°20'3 5.4
2017-Jul-12 05:00S 33°50' E 151°18'1 2.7
2017-Jul-12 04:30S 33°51' E 151°16'0 0.1
2017-Jul-12 03:22S 33°51' E 151°17'0 0.0
2017-Jul-11 20:04S 33°51' E 151°17'0 0.0
2017-Jul-11 12:40S 33°51' E 151°17'0 0.1
2017-Jul-11 12:19S 33°51' E 151°17'0 0.0
2017-Jul-11 11:55S 33°51' E 151°17'  

Dump ship's entire track history